Time;durP1;ratioP1;P1;durP2;ratioP2;P2;SDS_P1;SDS_P2;PMS_P1;PMS_P2;Temp;Humidity;BMP_temperature;BMP_pressure;BME280_temperature;BME280_humidity;BME280_pressure;Samples;Min_cycle;Max_cycle;Signal;HPM_P1;HPM_P2
2022/08/09 00:01:38;;;;;;;3.30;3.20;;;;;;;;;;5925857;24;20382;-88
2022/08/09 00:04:04;;;;;;;3.20;3.10;;;;;;;;;;5927842;24;20374;-89
2022/08/09 00:06:30;;;;;;;3.40;3.20;;;;;;;;;;5925426;24;20383;-89
2022/08/09 00:08:56;;;;;;;3.20;3.00;;;;;;;;;;5926307;24;20414;-89
2022/08/09 00:11:22;;;;;;;3.70;3.40;;;;;;;;;;5924857;24;20363;-88
2022/08/09 00:13:49;;;;;;;3.58;3.38;;;;;;;;;;5951551;24;20382;-88
2022/08/09 00:16:16;;;;;;;3.22;3.08;;;;;;;;;;5924809;24;20401;-88
2022/08/09 00:18:42;;;;;;;3.30;3.20;;;;;;;;;;5926060;24;20451;-88
2022/08/09 00:21:08;;;;;;;;;;;;;;;;;;5926247;24;20005;-88
2022/08/09 00:23:34;;;;;;;;;;;;;;;;;;5928872;24;20286;-89
2022/08/09 00:26:00;;;;;;;2.72;2.70;;;;;;;;;;5948212;24;20353;-88
2022/08/09 00:28:26;;;;;;;3.13;3.00;;;;;;;;;;5926633;24;20383;-89
2022/08/09 00:30:52;;;;;;;3.30;3.10;;;;;;;;;;5924472;24;20387;-88
2022/08/09 00:33:18;;;;;;;3.13;3.03;;;;;;;;;;5925541;24;20367;-88
2022/08/09 00:35:45;;;;;;;3.35;3.20;;;;;;;;;;5947919;24;20461;-88
2022/08/09 00:38:11;;;;;;;3.80;3.40;;;;;;;;;;5925454;24;20370;-88
2022/08/09 00:40:41;;;;;;;3.00;2.90;;;;;;;;;;5923704;24;20410;-88
2022/08/09 00:43:07;;;;;;;3.10;3.00;;;;;;;;;;5926164;24;20393;-88
2022/08/09 00:45:33;;;;;;;3.50;3.10;;;;;;;;;;5923814;24;20378;-89
2022/08/09 00:47:59;;;;;;;2.85;2.60;;;;;;;;;;5925777;24;20377;-88
2022/08/09 00:50:25;;;;;;;3.55;3.10;;;;;;;;;;5947751;24;20358;-89
2022/08/09 00:52:52;;;;;;;3.10;2.90;;;;;;;;;;5950237;24;20420;-88
2022/08/09 00:55:19;;;;;;;3.40;3.10;;;;;;;;;;5927864;24;20402;-89
2022/08/09 00:57:45;;;;;;;3.20;3.00;;;;;;;;;;5928477;24;20458;-89
2022/08/09 01:00:12;;;;;;;3.50;3.20;;;;;;;;;;5923492;24;20855;-89
2022/08/09 01:02:48;;;;;;;4.13;3.60;;;;;;;;;;5925254;24;20455;-88
2022/08/09 01:05:20;;;;;;;3.72;3.42;;;;;;;;;;5922829;24;20374;-88
2022/08/09 01:07:52;;;;;;;3.20;2.90;;;;;;;;;;5925280;24;20384;-89
2022/08/09 01:10:38;;;;;;;3.42;3.13;;;;;;;;;;5923209;24;20827;-88
2022/08/09 01:13:07;;;;;;;3.50;3.30;;;;;;;;;;5949471;24;20527;-87
2022/08/09 01:15:36;;;;;;;3.25;3.05;;;;;;;;;;5922747;24;20371;-87
2022/08/09 01:18:05;;;;;;;3.30;3.20;;;;;;;;;;5925314;24;20388;-87
2022/08/09 01:20:54;;;;;;;3.65;3.40;;;;;;;;;;5922780;24;20410;-87
2022/08/09 01:23:26;;;;;;;3.20;3.10;;;;;;;;;;5946403;24;20392;-89
2022/08/09 01:26:07;;;;;;;3.67;3.38;;;;;;;;;;5948253;24;20397;-87
2022/08/09 01:28:35;;;;;;;3.45;3.42;;;;;;;;;;5924909;24;20382;-86
2022/08/09 01:31:03;;;;;;;3.50;3.40;;;;;;;;;;5922918;24;20439;-87
2022/08/09 01:33:33;;;;;;;3.35;3.15;;;;;;;;;;5925238;24;20387;-88
2022/08/09 01:36:02;;;;;;;3.40;3.40;;;;;;;;;;5948917;24;20913;-86
2022/08/09 01:38:30;;;;;;;3.30;3.20;;;;;;;;;;5951092;24;20370;-86
2022/08/09 01:40:59;;;;;;;4.27;3.87;;;;;;;;;;5924868;24;20401;-88
2022/08/09 01:43:25;;;;;;;3.80;3.50;;;;;;;;;;5925504;24;20371;-87
2022/08/09 01:45:53;;;;;;;3.33;3.10;;;;;;;;;;5924892;24;20195;-87
2022/08/09 01:48:19;;;;;;;3.65;3.50;;;;;;;;;;5925432;24;20844;-87
2022/08/09 01:50:48;;;;;;;3.80;3.60;;;;;;;;;;5924538;24;20367;-86
2022/08/09 01:53:14;;;;;;;3.30;3.00;;;;;;;;;;5928262;24;20155;-88
2022/08/09 01:55:41;;;;;;;3.22;3.13;;;;;;;;;;5948463;24;20470;-88
2022/08/09 01:58:08;;;;;;;3.73;3.13;;;;;;;;;;5951562;24;20260;-88
2022/08/09 02:00:34;;;;;;;3.53;3.43;;;;;;;;;;5931578;24;20406;-87
2022/08/09 02:03:01;;;;;;;4.47;4.18;;;;;;;;;;5933300;24;20378;-88
2022/08/09 02:05:28;;;;;;;4.18;3.92;;;;;;;;;;5930959;24;20367;-88
2022/08/09 02:07:57;;;;;;;4.07;3.92;;;;;;;;;;5930704;24;20382;-88
2022/08/09 02:10:22;;;;;;;;;;;;;;;;;;5928952;24;20461;-87
2022/08/09 02:12:48;;;;;;;;;;;;;;;;;;5945178;24;19925;-88
2022/08/09 02:15:14;;;;;;;;;;;;;;;;;;5961257;24;19959;-89
2022/08/09 02:17:41;;;;;;;4.50;4.10;;;;;;;;;;5957128;24;20371;-88
2022/08/09 02:20:07;;;;;;;4.10;3.90;;;;;;;;;;5954434;24;20847;-89
2022/08/09 02:22:41;;;;;;;3.90;3.80;;;;;;;;;;5952040;24;20386;-88
2022/08/09 02:25:07;;;;;;;;;;;;;;;;;;5952057;24;20328;-88
2022/08/09 02:27:34;;;;;;;3.00;3.00;;;;;;;;;;5952139;24;20222;-88
2022/08/09 02:30:00;;;;;;;4.28;3.97;;;;;;;;;;5952760;24;20395;-89
2022/08/09 02:32:28;;;;;;;4.00;3.90;;;;;;;;;;5950577;24;20421;-88
2022/08/09 02:34:59;;;;;;;3.92;3.63;;;;;;;;;;5952288;24;20373;-88
2022/08/09 02:37:25;;;;;;;4.05;3.90;;;;;;;;;;5950622;24;20369;-88
2022/08/09 02:40:02;;;;;;;4.50;4.15;;;;;;;;;;5952419;24;20377;-88
2022/08/09 02:42:34;;;;;;;4.60;4.40;;;;;;;;;;5950327;24;20831;-87
2022/08/09 02:45:05;;;;;;;4.05;3.95;;;;;;;;;;5953051;24;20719;-89
2022/08/09 02:47:34;;;;;;;4.25;4.05;;;;;;;;;;5950475;24;20816;-88
2022/08/09 02:50:05;;;;;;;3.30;3.30;;;;;;;;;;5953588;24;20168;-88
2022/08/09 02:52:36;;;;;;;4.53;4.23;;;;;;;;;;5951704;24;20386;-88
2022/08/09 02:55:04;;;;;;;5.07;4.32;;;;;;;;;;5953430;24;20377;-89
2022/08/09 02:57:32;;;;;;;4.30;3.90;;;;;;;;;;5977282;24;20444;-89
2022/08/09 02:59:58;;;;;;;4.70;4.50;;;;;;;;;;5978822;24;20395;-88
2022/08/09 03:02:25;;;;;;;3.43;3.33;;;;;;;;;;5953035;24;20164;-88
2022/08/09 03:04:53;;;;;;;4.90;4.40;;;;;;;;;;5953387;24;20850;-88
2022/08/09 03:07:19;;;;;;;4.20;3.93;;;;;;;;;;5951646;24;20495;-88
2022/08/09 03:09:46;;;;;;;4.60;4.40;;;;;;;;;;5954018;24;20710;-88
2022/08/09 03:12:12;;;;;;;4.20;4.00;;;;;;;;;;5953143;24;20225;-88
2022/08/09 03:14:39;;;;;;;4.40;4.20;;;;;;;;;;5954366;24;20365;-88
2022/08/09 03:17:15;;;;;;;;;;;;;;;;;;5964297;24;20039;-93
2022/08/09 03:19:42;;;;;;;4.97;4.50;;;;;;;;;;5919536;24;20425;-91
2022/08/09 03:22:08;;;;;;;4.43;4.10;;;;;;;;;;5951135;24;20375;-92
2022/08/09 03:24:34;;;;;;;6.43;4.50;;;;;;;;;;5951640;24;20228;-91
2022/08/09 03:27:01;;;;;;;4.90;4.60;;;;;;;;;;5950699;24;20814;-92
2022/08/09 03:29:27;;;;;;;4.37;3.97;;;;;;;;;;5951543;24;20403;-91
2022/08/09 03:31:53;;;;;;;4.65;4.45;;;;;;;;;;5949407;24;20431;-90
2022/08/09 03:34:19;;;;;;;5.50;5.15;;;;;;;;;;5951921;24;20374;-91
2022/08/09 03:36:46;;;;;;;5.60;5.20;;;;;;;;;;5950128;24;20383;-90
2022/08/09 03:39:11;;;;;;;5.15;4.95;;;;;;;;;;5953331;24;20400;-92
2022/08/09 03:41:37;;;;;;;4.88;4.50;;;;;;;;;;5955960;24;20374;-91
2022/08/09 03:44:03;;;;;;;5.70;5.40;;;;;;;;;;5960667;24;20406;-89
2022/08/09 03:46:29;;;;;;;5.10;4.90;;;;;;;;;;5962342;24;20405;-91
2022/08/09 03:48:57;;;;;;;5.40;5.00;;;;;;;;;;5969601;24;20379;-90
2022/08/09 03:51:25;;;;;;;5.40;4.93;;;;;;;;;;5967536;24;20528;-92
2022/08/09 03:53:51;;;;;;;5.63;5.13;;;;;;;;;;5962398;24;20454;-91
2022/08/09 03:56:17;;;;;;;5.07;4.68;;;;;;;;;;5959315;24;20379;-92
2022/08/09 03:58:43;;;;;;;5.80;5.30;;;;;;;;;;5964777;24;20539;-91
2022/08/09 04:01:10;;;;;;;4.38;4.18;;;;;;;;;;5963664;24;20362;-91
2022/08/09 04:03:37;;;;;;;4.68;4.47;;;;;;;;;;5971865;24;20373;-91
2022/08/09 04:06:03;;;;;;;5.10;4.70;;;;;;;;;;5963826;24;20385;-91
2022/08/09 04:08:29;;;;;;;6.35;5.85;;;;;;;;;;5991157;24;20360;-91
2022/08/09 04:10:55;;;;;;;7.88;5.80;;;;;;;;;;5964302;24;20441;-92
2022/08/09 04:13:21;;;;;;;5.65;4.90;;;;;;;;;;5967043;24;20426;-92
2022/08/09 04:15:47;;;;;;;6.30;5.70;;;;;;;;;;5966919;24;20381;-90
2022/08/09 04:18:13;;;;;;;5.80;5.40;;;;;;;;;;5967592;24;20393;-91
2022/08/09 04:20:40;;;;;;;5.38;4.97;;;;;;;;;;5971886;24;20368;-90
2022/08/09 04:23:07;;;;;;;5.57;5.07;;;;;;;;;;5963314;24;20380;-90
2022/08/09 04:25:33;;;;;;;5.07;4.73;;;;;;;;;;5957841;24;20410;-91
2022/08/09 04:27:59;;;;;;;11.60;4.67;;;;;;;;;;5957459;24;20412;-90
2022/08/09 04:30:25;;;;;;;;;;;;;;;;;;5971870;24;20237;-91
2022/08/09 04:32:51;;;;;;;;;;;;;;;;;;5970740;24;19902;-91
2022/08/09 04:35:17;;;;;;;;;;;;;;;;;;5968884;24;19907;-91
2022/08/09 04:37:42;;;;;;;;;;;;;;;;;;5969170;24;19953;-91
2022/08/09 04:40:09;;;;;;;;;;;;;;;;;;5993184;24;20430;-89
2022/08/09 04:42:38;;;;;;;;;;;;;;;;;;5957112;24;19903;-91
2022/08/09 04:45:03;;;;;;;;;;;;;;;;;;5958694;24;20336;-91
2022/08/09 04:47:29;;;;;;;;;;;;;;;;;;5980371;24;19918;-90
2022/08/09 04:49:55;;;;;;;;;;;;;;;;;;5957272;24;19903;-91
2022/08/09 04:52:21;;;;;;;;;;;;;;;;;;5955893;24;19989;-91
2022/08/09 04:54:47;;;;;;;;;;;;;;;;;;5957551;24;19913;-91
2022/08/09 04:57:13;;;;;;;;;;;;;;;;;;5956195;24;19965;-91
2022/08/09 04:59:39;;;;;;;;;;;;;;;;;;5957382;24;20463;-89
2022/08/09 05:02:05;;;;;;;;;;;;;;;;;;5955349;24;19906;-90
2022/08/09 05:04:31;;;;;;;;;;;;;;;;;;5957632;24;19929;-91
2022/08/09 05:06:56;;;;;;;;;;;;;;;;;;5956261;24;19915;-90
2022/08/09 05:09:22;;;;;;;;;;;;;;;;;;5958700;24;19945;-90
2022/08/09 05:11:48;;;;;;;;;;;;;;;;;;5953730;24;19947;-92
2022/08/09 05:14:14;;;;;;;;;;;;;;;;;;5955275;24;20112;-91
2022/08/09 05:16:40;;;;;;;;;;;;;;;;;;5954166;24;19903;-91
2022/08/09 05:19:06;;;;;;;;;;;;;;;;;;5949550;24;19953;-93
2022/08/09 05:21:32;;;;;;;;;;;;;;;;;;5947026;24;20278;-91
2022/08/09 05:23:58;;;;;;;;;;;;;;;;;;5945449;24;19910;-91
2022/08/09 05:26:24;;;;;;;;;;;;;;;;;;5951773;24;19917;-91
2022/08/09 05:28:53;;;;;;;;;;;;;;;;;;5950653;24;19903;-90
2022/08/09 05:31:19;;;;;;;;;;;;;;;;;;5947918;24;19907;-91
2022/08/09 05:33:44;;;;;;;;;;;;;;;;;;5949332;24;19940;-89
2022/08/09 05:36:10;;;;;;;;;;;;;;;;;;5947891;24;19909;-92
2022/08/09 05:38:36;;;;;;;;;;;;;;;;;;5950128;24;19918;-91
2022/08/09 05:41:02;;;;;;;;;;;;;;;;;;5951136;24;19903;-93
2022/08/09 05:43:28;;;;;;;;;;;;;;;;;;5950899;24;19903;-93
2022/08/09 05:45:55;;;;;;;;;;;;;;;;;;5951333;24;20240;-92
2022/08/09 05:48:21;;;;;;;;;;;;;;;;;;5953860;24;19903;-91
2022/08/09 05:50:47;;;;;;;;;;;;;;;;;;5951720;24;19906;-92
2022/08/09 05:53:13;;;;;;;;;;;;;;;;;;5950613;24;19958;-92
2022/08/09 05:55:39;;;;;;;;;;;;;;;;;;5955929;24;19903;-91
2022/08/09 05:58:05;;;;;;;;;;;;;;;;;;5951452;24;20366;-90
2022/08/09 06:00:31;;;;;;;;;;;;;;;;;;5950970;24;19963;-90
2022/08/09 06:02:57;;;;;;;;;;;;;;;;;;5949322;24;19907;-89
2022/08/09 06:05:23;;;;;;;;;;;;;;;;;;5951082;24;19903;-89
2022/08/09 06:07:49;;;;;;;;;;;;;;;;;;5949650;24;19983;-89
2022/08/09 06:10:14;;;;;;;;;;;;;;;;;;5952372;24;19910;-90
2022/08/09 06:12:41;;;;;;;;;;;;;;;;;;5947722;24;20193;-86
2022/08/09 06:15:07;;;;;;;;;;;;;;;;;;5951501;24;19913;-91
2022/08/09 06:17:33;;;;;;;;;;;;;;;;;;5950647;24;20317;-91
2022/08/09 06:19:59;;;;;;;;;;;;;;;;;;5957486;24;19914;-91
2022/08/09 06:22:25;;;;;;;;;;;;;;;;;;5951382;24;19910;-90
2022/08/09 06:24:51;;;;;;;6.00;5.60;;;;;;;;;;5955479;24;20375;-89
2022/08/09 06:27:17;;;;;;;5.70;5.35;;;;;;;;;;5984210;24;20385;-91
2022/08/09 06:29:43;;;;;;;5.78;5.38;;;;;;;;;;5954873;24;20370;-88
2022/08/09 06:32:10;;;;;;;7.90;4.80;;;;;;;;;;5955148;24;20160;-90
2022/08/09 06:34:36;;;;;;;5.60;5.20;;;;;;;;;;5957659;24;20732;-91
2022/08/09 06:37:02;;;;;;;5.57;5.20;;;;;;;;;;5991688;24;20208;-90
2022/08/09 06:39:29;;;;;;;4.80;4.60;;;;;;;;;;5976863;24;20390;-91
2022/08/09 06:41:55;;;;;;;6.20;5.63;;;;;;;;;;5986591;24;20361;-92
2022/08/09 06:44:21;;;;;;;5.70;5.40;;;;;;;;;;5960354;24;20669;-90
2022/08/09 06:46:49;;;;;;;4.83;4.70;;;;;;;;;;5957455;24;20916;-93
2022/08/09 06:49:15;;;;;;;5.30;5.00;;;;;;;;;;5961647;24;20405;-92
2022/08/09 06:51:43;;;;;;;5.40;5.10;;;;;;;;;;5959633;24;20386;-93
2022/08/09 06:54:11;;;;;;;9.70;5.20;;;;;;;;;;5963278;24;20476;-91
2022/08/09 06:56:37;;;;;;;5.53;5.13;;;;;;;;;;5965623;24;20381;-92
2022/08/09 06:59:03;;;;;;;5.53;4.37;;;;;;;;;;5971777;24;20394;-90
2022/08/09 07:01:33;;;;;;;6.07;5.57;;;;;;;;;;5964026;24;20778;-93
2022/08/09 07:03:59;;;;;;;4.37;4.07;;;;;;;;;;5964123;24;20409;-92
2022/08/09 07:06:25;;;;;;;4.87;4.73;;;;;;;;;;5960362;24;20429;-92
2022/08/09 07:08:51;;;;;;;4.20;3.80;;;;;;;;;;5966214;24;20909;-90
2022/08/09 07:11:26;;;;;;;4.17;3.97;;;;;;;;;;5997802;24;20380;-91
2022/08/09 07:13:58;;;;;;;4.00;3.90;;;;;;;;;;5968760;24;20389;-93
2022/08/09 07:16:30;;;;;;;6.10;4.80;;;;;;;;;;5966009;24;20382;-92
2022/08/09 07:18:56;;;;;;;4.35;4.00;;;;;;;;;;5967161;24;20393;-93
2022/08/09 07:21:22;;;;;;;6.73;4.60;;;;;;;;;;5969333;24;20196;-91
2022/08/09 07:23:51;;;;;;;5.20;5.00;;;;;;;;;;5959114;24;20392;-93
2022/08/09 07:26:17;;;;;;;4.60;4.27;;;;;;;;;;5965498;24;20448;-93
2022/08/09 07:28:44;;;;;;;4.93;4.10;;;;;;;;;;5987764;24;20385;-93
2022/08/09 07:31:09;;;;;;;3.87;3.73;;;;;;;;;;5966455;24;20397;-91
2022/08/09 07:33:36;;;;;;;4.57;4.17;;;;;;;;;;5964846;24;20409;-92
2022/08/09 07:36:05;;;;;;;4.23;4.03;;;;;;;;;;5969604;24;20394;-91
2022/08/09 07:38:31;;;;;;;4.10;3.90;;;;;;;;;;5963551;24;20405;-92
2022/08/09 07:41:06;;;;;;;6.30;4.20;;;;;;;;;;5966867;24;20397;-92
2022/08/09 07:43:40;;;;;;;4.13;4.00;;;;;;;;;;5966231;24;20397;-94
2022/08/09 07:46:07;;;;;;;4.33;4.07;;;;;;;;;;5968267;24;20426;-92
2022/08/09 07:48:56;;;;;;;3.50;3.40;;;;;;;;;;5968884;24;20397;-91
2022/08/09 07:51:22;;;;;;;5.00;4.40;;;;;;;;;;5967678;24;20704;-90
2022/08/09 07:53:54;;;;;;;3.30;3.10;;;;;;;;;;5963083;24;20876;-90
2022/08/09 07:56:41;;;;;;;5.80;5.07;;;;;;;;;;5991762;24;20851;-94
2022/08/09 07:59:07;;;;;;;4.30;3.60;;;;;;;;;;5985655;24;20384;-91
2022/08/09 08:01:33;;;;;;;4.27;3.90;;;;;;;;;;5982314;24;20389;-90
2022/08/09 08:03:59;;;;;;;3.63;3.53;;;;;;;;;;5958545;24;20440;-89
2022/08/09 08:06:25;;;;;;;4.20;3.90;;;;;;;;;;5957998;24;20460;-91
2022/08/09 08:08:51;;;;;;;3.40;3.30;;;;;;;;;;5957611;24;20926;-91
2022/08/09 08:11:17;;;;;;;4.53;4.30;;;;;;;;;;5958275;24;20477;-93
2022/08/09 08:13:43;;;;;;;4.57;4.17;;;;;;;;;;5955680;24;20937;-93
2022/08/09 08:16:09;;;;;;;3.90;3.70;;;;;;;;;;5956517;24;20397;-92
2022/08/09 08:18:35;;;;;;;3.80;3.70;;;;;;;;;;5981822;24;20421;-92
2022/08/09 08:21:01;;;;;;;4.27;3.90;;;;;;;;;;5957418;24;20382;-91
2022/08/09 08:23:27;;;;;;;4.47;4.17;;;;;;;;;;5948189;24;21120;-90
2022/08/09 08:25:53;;;;;;;4.60;4.27;;;;;;;;;;5976960;24;21048;-90
2022/08/09 08:28:20;;;;;;;5.83;4.33;;;;;;;;;;5952082;24;20389;-89
2022/08/09 08:30:46;;;;;;;4.47;4.27;;;;;;;;;;5954437;24;20394;-89
2022/08/09 08:33:12;;;;;;;6.60;4.80;;;;;;;;;;5976342;24;20761;-89
2022/08/09 08:35:38;;;;;;;4.50;4.20;;;;;;;;;;5956541;24;20404;-89
2022/08/09 08:38:12;;;;;;;3.87;3.80;;;;;;;;;;5959657;24;20508;-90
2022/08/09 08:40:41;;;;;;;8.47;4.60;;;;;;;;;;5961472;24;20402;-91
2022/08/09 08:43:11;;;;;;;4.73;4.43;;;;;;;;;;5960784;24;20397;-92
2022/08/09 08:45:44;;;;;;;5.20;4.80;;;;;;;;;;5991204;24;20378;-90
2022/08/09 08:48:10;;;;;;;3.90;3.70;;;;;;;;;;5991815;24;20377;-90
2022/08/09 08:50:37;;;;;;;4.50;4.30;;;;;;;;;;5966027;24;20465;-92
2022/08/09 08:53:03;;;;;;;4.30;3.93;;;;;;;;;;5964804;24;20393;-95
2022/08/09 08:55:29;;;;;;;4.10;4.00;;;;;;;;;;5972296;24;20400;-90
2022/08/09 08:57:55;;;;;;;4.10;4.00;;;;;;;;;;5969273;24;20401;-95
2022/08/09 09:00:21;;;;;;;4.47;3.87;;;;;;;;;;5959441;24;20426;-91
2022/08/09 09:02:51;;;;;;;4.10;3.80;;;;;;;;;;5981281;24;20381;-91
2022/08/09 09:05:24;;;;;;;3.47;3.37;;;;;;;;;;5956173;24;20426;-92
2022/08/09 09:07:50;;;;;;;3.60;3.40;;;;;;;;;;5978562;24;20409;-91
2022/08/09 09:10:17;;;;;;;4.23;4.03;;;;;;;;;;5979254;24;20378;-89
2022/08/09 09:12:44;;;;;;;5.00;4.60;;;;;;;;;;5953981;24;20398;-90
2022/08/09 09:15:10;;;;;;;4.20;3.93;;;;;;;;;;5959214;24;20398;-90
2022/08/09 09:17:37;;;;;;;3.57;3.30;;;;;;;;;;5957530;24;20456;-92
2022/08/09 09:20:09;;;;;;;3.43;3.37;;;;;;;;;;5957788;24;20429;-92
2022/08/09 09:22:51;;;;;;;3.53;3.33;;;;;;;;;;5958799;24;20430;-92
2022/08/09 09:25:32;;;;;;;3.50;3.40;;;;;;;;;;5958343;24;20401;-94
2022/08/09 09:27:59;;;;;;;3.53;3.43;;;;;;;;;;5952586;24;20909;-91
2022/08/09 09:30:27;;;;;;;4.20;3.70;;;;;;;;;;5981542;24;20380;-92
2022/08/09 09:33:10;;;;;;;3.93;3.00;;;;;;;;;;5951441;24;21046;-90
2022/08/09 09:35:52;;;;;;;3.67;3.40;;;;;;;;;;5959740;24;20408;-92
2022/08/09 09:38:20;;;;;;;3.37;3.27;;;;;;;;;;5956330;24;20724;-91
2022/08/09 09:40:46;;;;;;;3.50;3.50;;;;;;;;;;5981642;24;20462;-93
2022/08/09 09:43:19;;;;;;;3.47;3.37;;;;;;;;;;5955385;24;20866;-90
2022/08/09 09:45:50;;;;;;;3.43;3.30;;;;;;;;;;5959543;24;20385;-92
2022/08/09 09:48:17;;;;;;;3.20;3.20;;;;;;;;;;5958266;24;20470;-92
2022/08/09 09:50:46;;;;;;;3.90;3.73;;;;;;;;;;5961203;24;20390;-93
2022/08/09 09:53:17;;;;;;;4.00;3.80;;;;;;;;;;5962084;24;20445;-89
2022/08/09 09:55:55;;;;;;;4.80;3.87;;;;;;;;;;5985383;24;20410;-91
2022/08/09 09:58:21;;;;;;;3.60;3.40;;;;;;;;;;5962669;24;20404;-88
2022/08/09 10:00:52;;;;;;;3.97;3.83;;;;;;;;;;5962067;24;20396;-92
2022/08/09 10:03:36;;;;;;;5.60;3.70;;;;;;;;;;5961984;23;20465;-91
2022/08/09 10:06:02;;;;;;;3.30;3.30;;;;;;;;;;5964080;24;20385;-92
2022/08/09 10:08:31;;;;;;;3.30;3.30;;;;;;;;;;5984794;24;20454;-91
2022/08/09 10:10:57;;;;;;;3.40;3.20;;;;;;;;;;5960723;24;20394;-92
2022/08/09 10:13:23;;;;;;;4.20;4.00;;;;;;;;;;5960211;24;20390;-92
2022/08/09 10:15:57;;;;;;;3.73;3.63;;;;;;;;;;5960406;24;20480;-91
2022/08/09 10:21:28;;;;;;;3.00;3.00;;;;;;;;;;5973693;24;20389;-89
2022/08/09 10:24:00;;;;;;;3.20;3.13;;;;;;;;;;5962451;24;20401;-93
2022/08/09 10:26:48;;;;;;;3.63;3.53;;;;;;;;;;5992644;24;20444;-89
2022/08/09 10:29:31;;;;;;;4.20;4.00;;;;;;;;;;5937486;24;20413;-93
2022/08/09 10:32:09;;;;;;;3.60;3.40;;;;;;;;;;5987611;24;20339;-92
2022/08/09 10:35:06;;;;;;;3.80;3.47;;;;;;;;;;5934318;24;20570;-94
2022/08/09 10:38:04;;;;;;;3.40;3.30;;;;;;;;;;5931782;24;20558;-92
2022/08/09 10:46:43;;;;;;;3.80;3.57;;;;;;;;;;5961623;24;20454;-92
2022/08/09 10:49:27;;;;;;;3.63;3.53;;;;;;;;;;5939258;24;20448;-92
2022/08/09 10:52:12;;;;;;;3.97;3.87;;;;;;;;;;5946460;24;20414;-92
2022/08/09 10:54:47;;;;;;;3.90;3.80;;;;;;;;;;5966536;24;20724;-94
2022/08/09 10:57:16;;;;;;;4.87;4.33;;;;;;;;;;5941762;24;20434;-89
2022/08/09 10:59:46;;;;;;;3.60;3.40;;;;;;;;;;5945926;24;20462;-95
2022/08/09 11:02:17;;;;;;;3.70;3.60;;;;;;;;;;5951312;24;20403;-93
2022/08/09 11:09:55;;;;;;;3.40;3.13;;;;;;;;;;5966620;24;20522;-96
2022/08/09 11:12:25;;;;;;;5.70;3.90;;;;;;;;;;5938917;24;21008;-94
2022/08/09 11:15:23;;;;;;;4.10;3.67;;;;;;;;;;5940471;24;20403;-95
2022/08/09 11:18:19;;;;;;;3.50;3.40;;;;;;;;;;5945596;24;20461;-93
2022/08/09 11:20:56;;;;;;;3.63;3.53;;;;;;;;;;5933187;24;20379;-93
2022/08/09 11:23:43;;;;;;;2.90;2.90;;;;;;;;;;5970955;24;20381;-93
2022/08/09 11:29:34;;;;;;;3.70;3.37;;;;;;;;;;5952016;24;20413;-93
2022/08/09 11:32:19;;;;;;;4.70;3.20;;;;;;;;;;5945787;24;20374;-94
2022/08/09 11:34:51;;;;;;;3.20;3.10;;;;;;;;;;5944789;24;20408;-94
2022/08/09 11:37:29;;;;;;;3.83;3.77;;;;;;;;;;5964999;24;20434;-92
2022/08/09 11:40:09;;;;;;;3.63;3.43;;;;;;;;;;5941034;24;20377;-91
2022/08/09 11:42:50;;;;;;;3.70;3.60;;;;;;;;;;5954120;24;20378;-94
2022/08/09 11:45:20;;;;;;;3.60;3.47;;;;;;;;;;5972917;24;20569;-94
2022/08/09 11:47:51;;;;;;;5.60;3.50;;;;;;;;;;5949827;24;20435;-90
2022/08/09 11:50:18;;;;;;;4.73;3.40;;;;;;;;;;5942596;24;20474;-92
2022/08/09 11:52:59;;;;;;;3.00;2.90;;;;;;;;;;5944676;24;20462;-92
2022/08/09 11:55:31;;;;;;;3.50;3.37;;;;;;;;;;5946417;24;20446;-94
2022/08/09 11:58:02;;;;;;;3.47;3.37;;;;;;;;;;5944729;24;20434;-94
2022/08/09 12:00:30;;;;;;;4.27;4.07;;;;;;;;;;5945773;24;20389;-93
2022/08/09 12:02:56;;;;;;;4.40;4.30;;;;;;;;;;5946317;24;20390;-93
2022/08/09 12:05:29;;;;;;;3.57;3.37;;;;;;;;;;5920941;24;20421;-88
2022/08/09 12:07:55;;;;;;;3.83;3.57;;;;;;;;;;5914259;24;20422;-93
2022/08/09 12:10:23;;;;;;;3.77;3.47;;;;;;;;;;5915669;24;20748;-91
2022/08/09 12:12:49;;;;;;;4.47;4.07;;;;;;;;;;5906251;24;20395;-94
2022/08/09 12:15:23;;;;;;;4.00;3.83;;;;;;;;;;5914157;24;20372;-94
2022/08/09 12:17:50;;;;;;;3.53;3.30;;;;;;;;;;5906504;24;21136;-93
2022/08/09 12:20:17;;;;;;;3.70;3.50;;;;;;;;;;5910193;24;20448;-94
2022/08/09 12:22:52;;;;;;;3.87;3.77;;;;;;;;;;5935985;24;20387;-93
2022/08/09 12:25:23;;;;;;;4.10;3.80;;;;;;;;;;5931829;24;20395;-94
2022/08/09 12:28:07;;;;;;;3.13;3.10;;;;;;;;;;5913333;24;20392;-95
2022/08/09 12:30:33;;;;;;;3.97;3.77;;;;;;;;;;5936620;24;20363;-92
2022/08/09 12:33:03;;;;;;;3.30;3.20;;;;;;;;;;5908571;24;20873;-93
2022/08/09 12:35:29;;;;;;;3.57;3.47;;;;;;;;;;5916128;24;20396;-94
2022/08/09 12:37:56;;;;;;;3.20;3.20;;;;;;;;;;5943688;23;20782;-91
2022/08/09 12:40:26;;;;;;;2.47;2.37;;;;;;;;;;5975973;23;20406;-91
2022/08/09 12:42:53;;;;;;;3.33;3.13;;;;;;;;;;5973659;24;20470;-92
2022/08/09 12:45:19;;;;;;;4.27;3.87;;;;;;;;;;5971497;24;20461;-89
2022/08/09 12:47:46;;;;;;;3.47;3.27;;;;;;;;;;5973971;24;20433;-95
2022/08/09 12:50:18;;;;;;;3.40;3.20;;;;;;;;;;5999831;24;20393;-93
2022/08/09 12:52:45;;;;;;;4.03;3.20;;;;;;;;;;5971838;24;20503;-93
2022/08/09 12:55:22;;;;;;;3.57;3.30;;;;;;;;;;5974321;24;20438;-93
2022/08/09 12:57:48;;;;;;;4.23;4.03;;;;;;;;;;5973015;24;20456;-93
2022/08/09 13:00:20;;;;;;;3.70;3.40;;;;;;;;;;5972038;24;20410;-91
2022/08/09 13:02:49;;;;;;;3.20;3.20;;;;;;;;;;5972141;24;20439;-90
2022/08/09 13:05:17;;;;;;;4.10;4.00;;;;;;;;;;5997882;23;20405;-88
2022/08/09 13:07:46;;;;;;;3.40;3.40;;;;;;;;;;5969734;24;20398;-95
2022/08/09 13:10:12;;;;;;;7.13;3.50;;;;;;;;;;5955851;24;20416;-94
2022/08/09 13:12:47;;;;;;;3.87;3.77;;;;;;;;;;5979607;23;20409;-92
2022/08/09 13:15:13;;;;;;;3.60;3.50;;;;;;;;;;5976649;24;20692;-95
2022/08/09 13:17:49;;;;;;;3.30;3.27;;;;;;;;;;5994597;24;20453;-94
2022/08/09 13:20:15;;;;;;;3.37;3.10;;;;;;;;;;5972559;24;20382;-91
2022/08/09 13:22:54;;;;;;;3.23;3.13;;;;;;;;;;5995519;24;20473;-88
2022/08/09 13:25:21;;;;;;;3.87;3.53;;;;;;;;;;5997806;24;20366;-95
2022/08/09 13:27:47;;;;;;;3.10;2.90;;;;;;;;;;5972273;24;20430;-92
2022/08/09 13:30:22;;;;;;;3.10;3.07;;;;;;;;;;5975132;24;20426;-92
2022/08/09 13:32:56;;;;;;;2.73;2.57;;;;;;;;;;5973756;24;20445;-95
2022/08/09 13:35:24;;;;;;;3.27;3.17;;;;;;;;;;5992156;23;20871;-94
2022/08/09 13:37:51;;;;;;;3.27;3.00;;;;;;;;;;5974688;23;20448;-96
2022/08/09 13:40:18;;;;;;;3.63;3.50;;;;;;;;;;5973236;24;20382;-93
2022/08/09 13:42:45;;;;;;;3.50;3.30;;;;;;;;;;5975141;24;20405;-91
2022/08/09 13:45:12;;;;;;;2.90;2.90;;;;;;;;;;5978196;23;20474;-96
2022/08/09 13:47:38;;;;;;;3.37;3.27;;;;;;;;;;5946029;24;20470;-91
2022/08/09 13:50:08;;;;;;;3.17;2.97;;;;;;;;;;5945925;24;20399;-89
2022/08/09 13:52:34;;;;;;;2.90;2.90;;;;;;;;;;5938934;24;20514;-94
2022/08/09 13:55:09;;;;;;;5.17;3.90;;;;;;;;;;5997201;23;20905;-95
2022/08/09 13:57:37;;;;;;;3.63;3.43;;;;;;;;;;5997849;24;20448;-90
2022/08/09 14:00:08;;;;;;;3.57;3.47;;;;;;;;;;5993423;24;21001;-95
2022/08/09 14:02:34;;;;;;;3.80;3.70;;;;;;;;;;5993983;24;20398;-96
2022/08/09 14:05:00;;;;;;;8.47;3.20;;;;;;;;;;5971322;24;20426;-93
2022/08/09 14:07:26;;;;;;;3.70;2.87;;;;;;;;;;5961610;24;20406;-96
2022/08/09 14:09:52;;;;;;;3.00;2.87;;;;;;;;;;5964596;24;20413;-89
2022/08/09 14:12:21;;;;;;;3.03;2.83;;;;;;;;;;5964190;24;20402;-95
2022/08/09 14:14:48;;;;;;;3.87;3.57;;;;;;;;;;5967027;24;20466;-89
2022/08/09 14:17:14;;;;;;;3.60;3.13;;;;;;;;;;5969028;24;20421;-93
2022/08/09 14:19:43;;;;;;;3.93;3.83;;;;;;;;;;5971512;24;20402;-95
2022/08/09 14:22:09;;;;;;;3.77;3.73;;;;;;;;;;5968753;24;20405;-90
2022/08/09 14:24:35;;;;;;;3.27;3.17;;;;;;;;;;5965332;24;20429;-89
2022/08/09 14:27:01;;;;;;;3.43;2.90;;;;;;;;;;5967856;24;20424;-94
2022/08/09 14:29:27;;;;;;;4.37;4.13;;;;;;;;;;5969336;24;20731;-93
2022/08/09 14:31:54;;;;;;;3.43;3.33;;;;;;;;;;5970573;24;20451;-93
2022/08/09 14:34:20;;;;;;;3.83;3.60;;;;;;;;;;5967318;24;20394;-93
2022/08/09 14:36:46;;;;;;;3.43;3.43;;;;;;;;;;5966932;24;20526;-90
2022/08/09 14:39:16;;;;;;;3.63;3.53;;;;;;;;;;5967234;24;20402;-94
2022/08/09 14:41:42;;;;;;;4.10;3.90;;;;;;;;;;5967208;24;20426;-90
2022/08/09 14:44:08;;;;;;;3.33;3.23;;;;;;;;;;5969990;24;20409;-92
2022/08/09 14:46:34;;;;;;;3.10;2.90;;;;;;;;;;5966225;24;20394;-90
2022/08/09 14:49:02;;;;;;;4.03;3.83;;;;;;;;;;5969106;24;20403;-91
2022/08/09 14:51:28;;;;;;;4.43;4.20;;;;;;;;;;5966359;24;20398;-93
2022/08/09 14:53:58;;;;;;;3.90;3.60;;;;;;;;;;5969912;24;20435;-92
2022/08/09 14:56:27;;;;;;;2.93;2.90;;;;;;;;;;5972994;23;20449;-94
2022/08/09 14:58:53;;;;;;;3.37;3.27;;;;;;;;;;5973071;24;20505;-93
2022/08/09 15:01:22;;;;;;;3.70;3.60;;;;;;;;;;5972650;23;20422;-91
2022/08/09 15:03:59;;;;;;;3.13;3.03;;;;;;;;;;5975128;24;20435;-90
2022/08/09 15:09:07;;;;;;;4.00;3.53;;;;;;;;;;5976863;23;20292;-91
2022/08/09 15:11:36;;;;;;;4.03;3.70;;;;;;;;;;6005034;24;20392;-93
2022/08/09 15:14:03;;;;;;;4.13;4.03;;;;;;;;;;6003335;23;20402;-91
2022/08/09 15:16:29;;;;;;;3.90;3.77;;;;;;;;;;5952610;23;20539;-93
2022/08/09 15:18:56;;;;;;;3.43;3.33;;;;;;;;;;5967244;23;20465;-91
2022/08/09 15:21:51;;;;;;;3.93;3.67;;;;;;;;;;5963296;23;20465;-92
2022/08/09 15:26:53;;;;;;;4.50;4.13;;;;;;;;;;5967691;23;20548;-89
2022/08/09 15:29:19;;;;;;;3.70;3.60;;;;;;;;;;5965022;24;20445;-93
2022/08/09 15:31:46;;;;;;;3.70;3.53;;;;;;;;;;5970821;24;20410;-93